Time;durP1;ratioP1;P1;durP2;ratioP2;P2;SDS_P1;SDS_P2;PMS_P1;PMS_P2;Temp;Humidity;BMP_temperature;BMP_pressure;BME280_temperature;BME280_humidity;BME280_pressure;Samples;Min_cycle;Max_cycle;Signal;HPM_P1;HPM_P2
2023/07/15 00:00:14;;;;;;;1.00;1.00;;;23.90;71.00;;;;;;5047985;28;43330;-74
2023/07/15 00:02:44;;;;;;;0.90;0.90;;;23.80;71.30;;;;;;5019810;28;1171175;-75
2023/07/15 00:05:17;;;;;;;1.10;1.10;;;23.80;71.40;;;;;;5064911;28;43850;-75
2023/07/15 00:07:45;;;;;;;1.10;1.10;;;23.90;71.30;;;;;;5054092;28;43595;-75
2023/07/15 00:10:14;;;;;;;1.00;1.00;;;24.00;71.00;;;;;;5055681;28;43479;-74
2023/07/15 00:12:42;;;;;;;1.00;1.00;;;24.00;70.60;;;;;;5060999;28;43416;-74
2023/07/15 00:15:12;;;;;;;1.00;1.00;;;24.10;70.40;;;;;;5057022;28;43461;-74
2023/07/15 00:17:40;;;;;;;1.00;1.00;;;24.10;70.30;;;;;;5045780;28;43959;-74
2023/07/15 00:20:14;;;;;;;1.00;1.00;;;24.00;70.30;;;;;;5044293;28;43957;-74
2023/07/15 00:22:44;;;;;;;1.00;1.00;;;24.00;70.80;;;;;;5058827;28;43423;-75
2023/07/15 00:25:15;;;;;;;1.20;1.20;;;24.00;70.90;;;;;;5062947;28;43491;-75
2023/07/15 00:27:43;;;;;;;1.00;1.00;;;24.00;70.80;;;;;;5058372;28;43636;-74
2023/07/15 00:30:15;;;;;;;1.00;1.00;;;23.90;70.70;;;;;;5044746;28;44995;-74
2023/07/15 00:32:46;;;;;;;1.10;1.10;;;23.90;71.20;;;;;;5032510;28;43840;-74
2023/07/15 00:35:19;;;;;;;0.90;0.90;;;23.90;71.30;;;;;;5058382;28;43457;-74
2023/07/15 00:37:48;;;;;;;1.03;1.03;;;24.00;71.10;;;;;;5036356;28;45973;-74
2023/07/15 00:40:17;;;;;;;1.00;1.00;;;24.00;70.80;;;;;;5048193;28;43382;-74
2023/07/15 00:42:51;;;;;;;1.10;1.10;;;24.00;70.60;;;;;;5043279;28;43354;-74
2023/07/15 00:45:19;;;;;;;1.20;1.20;;;24.00;70.70;;;;;;5045678;28;43416;-73
2023/07/15 00:47:51;;;;;;;1.10;1.10;;;24.00;71.00;;;;;;5043932;28;45841;-73
2023/07/15 00:50:19;;;;;;;1.10;1.10;;;24.00;70.80;;;;;;5066198;28;43457;-79
2023/07/15 00:52:47;;;;;;;1.10;1.10;;;24.00;70.60;;;;;;5058917;28;43357;-74
2023/07/15 00:55:15;;;;;;;1.00;1.00;;;24.00;70.60;;;;;;5045723;28;43911;-75
2023/07/15 00:57:43;;;;;;;0.80;0.80;;;23.90;71.10;;;;;;5048772;28;45725;-74
2023/07/15 01:00:12;;;;;;;0.93;0.93;;;23.90;71.10;;;;;;5066890;28;43971;-75
2023/07/15 01:02:41;;;;;;;1.20;1.20;;;24.00;70.90;;;;;;5065619;28;43519;-75
2023/07/15 01:05:11;;;;;;;1.00;1.00;;;24.00;70.70;;;;;;5068402;28;43582;-75
2023/07/15 01:07:39;;;;;;;0.90;0.90;;;24.00;70.60;;;;;;5071174;28;45354;-75
2023/07/15 01:10:07;;;;;;;1.10;1.10;;;24.00;71.00;;;;;;5062216;28;43491;-75
2023/07/15 01:12:35;;;;;;;1.00;1.00;;;24.00;71.10;;;;;;5075624;28;43369;-74
2023/07/15 01:15:05;;;;;;;1.10;1.10;;;24.00;70.90;;;;;;5063117;28;43499;-74
2023/07/15 01:17:32;;;;;;;1.00;1.00;;;24.00;70.80;;;;;;5066523;28;45773;-74
2023/07/15 01:20:01;;;;;;;1.00;1.00;;;23.90;70.90;;;;;;5069905;28;44676;-74
2023/07/15 01:22:35;;;;;;;1.00;1.00;;;23.90;71.30;;;;;;5071238;28;43515;-75
2023/07/15 01:25:05;;;;;;;1.20;1.20;;;23.90;71.20;;;;;;5059033;28;43952;-74
2023/07/15 01:27:35;;;;;;;1.00;1.00;;;23.90;71.10;;;;;;5080296;28;44885;-74
2023/07/15 01:30:04;;;;;;;1.03;1.03;;;23.90;71.10;;;;;;5072476;28;43457;-74
2023/07/15 01:32:33;;;;;;;1.00;1.00;;;23.80;71.50;;;;;;5084115;28;43450;-74
2023/07/15 01:35:03;;;;;;;1.00;1.00;;;23.80;71.30;;;;;;5076536;28;43349;-74
2023/07/15 01:37:31;;;;;;;1.23;1.23;;;23.90;71.10;;;;;;5067874;28;45719;-73
2023/07/15 01:40:02;;;;;;;1.00;1.00;;;24.00;70.90;;;;;;5083550;28;43464;-74
2023/07/15 01:42:30;;;;;;;1.00;1.00;;;24.10;70.60;;;;;;5087179;28;43403;-75
2023/07/15 01:44:58;;;;;;;1.00;1.00;;;24.20;70.30;;;;;;5085649;28;44349;-75
2023/07/15 01:47:26;;;;;;;1.20;1.20;;;24.20;70.10;;;;;;5084953;28;43556;-75
2023/07/15 01:49:54;;;;;;;1.20;1.20;;;24.10;70.00;;;;;;5069201;28;44619;-74
2023/07/15 01:52:22;;;;;;;0.90;0.90;;;24.10;70.60;;;;;;5079697;28;43506;-75
2023/07/15 01:54:51;;;;;;;1.27;1.27;;;24.10;70.60;;;;;;5070471;28;43901;-73
2023/07/15 01:57:21;;;;;;;0.90;0.90;;;24.00;70.60;;;;;;5071301;28;46061;-74
2023/07/15 01:59:49;;;;;;;1.00;1.00;;;24.00;70.60;;;;;;5070374;28;44879;-74
2023/07/15 02:02:17;;;;;;;1.00;1.00;;;23.90;70.80;;;;;;5066910;28;43461;-73
2023/07/15 02:04:45;;;;;;;1.07;1.07;;;23.90;71.10;;;;;;5067193;28;43983;-73
2023/07/15 02:07:13;;;;;;;1.10;1.10;;;23.90;71.10;;;;;;5071614;28;45768;-74
2023/07/15 02:09:41;;;;;;;1.10;1.10;;;23.90;70.80;;;;;;5078639;28;43420;-74
2023/07/15 02:12:09;;;;;;;1.10;1.10;;;23.90;71.00;;;;;;5087109;28;43505;-74
2023/07/15 02:14:39;;;;;;;1.00;1.00;;;23.80;71.30;;;;;;5067860;28;43555;-73
2023/07/15 02:17:07;;;;;;;1.17;1.17;;;23.90;71.40;;;;;;5086417;28;45696;-74
2023/07/15 02:19:36;;;;;;;1.00;1.00;;;23.90;71.10;;;;;;5086102;28;43494;-73
2023/07/15 02:22:05;;;;;;;1.00;1.00;;;23.80;71.20;;;;;;5086955;28;43413;-74
2023/07/15 02:24:33;;;;;;;1.00;1.00;;;23.80;71.60;;;;;;5081433;28;43378;-73
2023/07/15 02:27:01;;;;;;;1.00;1.00;;;23.80;71.40;;;;;;5083932;27;43643;-73
2023/07/15 02:29:29;;;;;;;1.10;1.10;;;23.90;71.20;;;;;;5082437;28;43439;-74
2023/07/15 02:31:59;;;;;;;1.00;1.00;;;24.00;71.00;;;;;;5078514;28;43452;-74
2023/07/15 02:34:27;;;;;;;0.93;0.93;;;24.10;70.60;;;;;;5078678;28;44027;-73
2023/07/15 02:36:55;;;;;;;0.80;0.80;;;24.20;70.20;;;;;;5054851;28;45457;-73
2023/07/15 02:39:23;;;;;;;1.00;1.00;;;24.20;70.10;;;;;;5066426;28;44583;-74
2023/07/15 02:41:51;;;;;;;1.00;1.00;;;24.10;69.90;;;;;;5086169;28;43442;-74
2023/07/15 02:44:19;;;;;;;1.00;1.00;;;24.10;70.50;;;;;;5083388;28;43467;-73
2023/07/15 02:46:47;;;;;;;0.90;0.90;;;24.10;70.50;;;;;;5066355;28;45717;-75
2023/07/15 02:49:18;;;;;;;0.90;0.90;;;24.10;70.40;;;;;;5070171;28;44876;-74
2023/07/15 02:51:46;;;;;;;1.07;1.07;;;24.00;70.40;;;;;;5077876;28;43399;-75
2023/07/15 02:54:14;;;;;;;1.00;1.00;;;24.00;71.00;;;;;;5072967;28;43882;-74
2023/07/15 02:56:42;;;;;;;0.90;0.90;;;23.90;71.00;;;;;;5067512;28;43617;-75
2023/07/15 02:59:10;;;;;;;1.20;1.20;;;23.90;70.90;;;;;;5063466;28;44412;-75
2023/07/15 03:01:41;;;;;;;1.00;1.00;;;23.90;71.00;;;;;;5070017;28;43922;-76
2023/07/15 03:04:09;;;;;;;0.90;0.90;;;23.90;71.10;;;;;;5067882;28;43412;-75
2023/07/15 03:06:38;;;;;;;0.90;0.90;;;23.80;71.50;;;;;;5065381;28;45352;-72
2023/07/15 03:09:06;;;;;;;0.90;0.90;;;23.90;71.40;;;;;;5083526;28;43459;-75
2023/07/15 03:11:34;;;;;;;1.00;1.00;;;24.00;71.20;;;;;;5064036;28;43445;-73
2023/07/15 03:14:02;;;;;;;1.00;1.00;;;24.10;70.80;;;;;;5078532;28;43682;-72
2023/07/15 03:16:31;;;;;;;1.07;1.07;;;24.10;70.50;;;;;;5081740;28;44806;-73
2023/07/15 03:18:59;;;;;;;1.10;1.10;;;24.10;70.30;;;;;;5085158;28;43482;-73
2023/07/15 03:21:27;;;;;;;1.00;1.00;;;24.10;70.30;;;;;;5077857;28;43438;-73
2023/07/15 03:23:57;;;;;;;1.00;1.00;;;24.10;70.70;;;;;;5085491;28;43354;-72
2023/07/15 03:26:25;;;;;;;1.00;1.00;;;24.00;70.90;;;;;;5066997;28;45762;-73
2023/07/15 03:28:53;;;;;;;1.03;1.03;;;24.00;70.80;;;;;;5083249;28;43427;-73
2023/07/15 03:31:21;;;;;;;1.10;1.10;;;24.00;70.70;;;;;;5066067;28;43384;-74
2023/07/15 03:33:51;;;;;;;0.93;0.93;;;23.90;70.80;;;;;;5070497;28;43597;-74
2023/07/15 03:36:19;;;;;;;0.90;0.90;;;23.90;71.40;;;;;;5056409;28;43934;-73
2023/07/15 03:38:47;;;;;;;1.03;1.03;;;23.90;71.30;;;;;;5074870;28;43454;-73
2023/07/15 03:41:17;;;;;;;1.00;1.00;;;23.90;71.30;;;;;;5057519;28;43405;-73
2023/07/15 03:43:45;;;;;;;1.00;1.00;;;23.90;71.30;;;;;;5063754;28;43404;-73
2023/07/15 03:46:13;;;;;;;0.90;0.90;;;23.80;71.60;;;;;;5060451;28;43790;-74
2023/07/15 03:48:42;;;;;;;1.00;1.00;;;23.80;71.50;;;;;;5050541;28;44725;-74
2023/07/15 03:51:12;;;;;;;1.00;1.00;;;23.80;71.50;;;;;;5075891;28;43532;-73
2023/07/15 03:53:40;;;;;;;0.90;0.90;;;23.90;71.40;;;;;;5068519;28;43440;-73
2023/07/15 03:56:08;;;;;;;1.10;1.10;;;23.80;71.60;;;;;;5083033;28;43951;-74
2023/07/15 03:58:37;;;;;;;0.90;0.90;;;23.80;71.60;;;;;;5066326;28;44924;-74
2023/07/15 04:01:05;;;;;;;0.90;0.90;;;23.90;71.50;;;;;;5067280;28;43961;-75
2023/07/15 04:03:33;;;;;;;1.00;1.00;;;24.00;71.10;;;;;;5081785;28;43442;-75
2023/07/15 04:06:01;;;;;;;0.90;0.90;;;24.10;70.90;;;;;;5060738;28;45719;-73
2023/07/15 04:08:29;;;;;;;0.93;0.93;;;24.20;70.50;;;;;;5072877;28;43418;-74
2023/07/15 04:10:57;;;;;;;1.10;1.10;;;24.20;70.10;;;;;;5081774;28;43893;-75
2023/07/15 04:13:25;;;;;;;0.90;0.90;;;24.20;70.20;;;;;;5078918;28;43300;-75
2023/07/15 04:15:54;;;;;;;0.90;0.90;;;24.10;70.30;;;;;;5060936;28;43946;-75
2023/07/15 04:18:23;;;;;;;1.13;1.13;;;24.10;70.60;;;;;;5054191;28;43417;-74
2023/07/15 04:20:51;;;;;;;0.90;0.90;;;24.10;70.60;;;;;;5081266;28;43445;-74
2023/07/15 04:23:19;;;;;;;0.90;0.90;;;24.10;70.60;;;;;;5074324;28;43400;-74
2023/07/15 04:25:48;;;;;;;0.93;0.93;;;24.00;70.70;;;;;;5062138;28;45896;-74
2023/07/15 04:28:16;;;;;;;1.00;1.00;;;24.00;71.00;;;;;;5077543;28;43398;-73
2023/07/15 04:30:44;;;;;;;1.10;1.10;;;24.00;71.00;;;;;;5078803;28;43395;-74
2023/07/15 04:33:13;;;;;;;0.93;0.93;;;23.90;71.00;;;;;;5068776;28;43436;-75
2023/07/15 04:35:41;;;;;;;1.10;1.10;;;23.90;71.00;;;;;;5069294;28;45707;-74
2023/07/15 04:38:10;;;;;;;1.00;1.00;;;23.90;71.40;;;;;;5070639;28;43617;-74
2023/07/15 04:40:38;;;;;;;0.93;0.93;;;23.90;71.40;;;;;;5072950;28;43485;-73
2023/07/15 04:43:06;;;;;;;0.97;0.97;;;23.90;71.40;;;;;;5079803;28;43364;-75
2023/07/15 04:45:34;;;;;;;1.20;1.20;;;23.90;71.30;;;;;;5084479;28;43604;-75
2023/07/15 04:48:03;;;;;;;1.00;1.00;;;23.80;71.60;;;;;;5085198;28;43351;-74
2023/07/15 04:50:32;;;;;;;0.90;0.90;;;23.80;71.50;;;;;;5081028;28;43879;-74
2023/07/15 04:53:00;;;;;;;1.37;1.00;;;23.90;71.70;;;;;;5078104;28;43368;-75
2023/07/15 04:55:28;;;;;;;1.83;1.10;;;24.00;70.90;;;;;;5080301;28;43602;-75
2023/07/15 04:57:56;;;;;;;0.93;0.93;;;24.10;70.60;;;;;;5062116;28;43314;-74
2023/07/15 05:00:27;;;;;;;1.10;1.10;;;24.20;70.40;;;;;;5060012;28;43404;-74
2023/07/15 05:02:55;;;;;;;1.00;1.00;;;24.20;70.20;;;;;;5070542;28;43419;-74
2023/07/15 05:05:23;;;;;;;1.00;1.00;;;24.20;70.30;;;;;;5072062;28;43636;-74
2023/07/15 05:07:53;;;;;;;1.20;1.20;;;24.10;70.60;;;;;;5080843;28;43346;-73
2023/07/15 05:10:26;;;;;;;1.10;1.10;;;24.10;70.70;;;;;;5072762;28;43394;-75
2023/07/15 05:12:54;;;;;;;1.20;1.20;;;24.10;70.70;;;;;;5075649;28;43520;-75
2023/07/15 05:15:22;;;;;;;1.00;1.00;;;24.00;70.80;;;;;;5065120;28;46128;-74
2023/07/15 05:17:50;;;;;;;1.20;1.20;;;24.00;70.90;;;;;;5071036;28;43427;-73
2023/07/15 05:20:19;;;;;;;0.90;0.90;;;24.00;71.30;;;;;;5061743;28;43434;-75
2023/07/15 05:22:47;;;;;;;1.20;1.20;;;23.90;71.10;;;;;;5069670;28;43437;-74
2023/07/15 05:25:17;;;;;;;1.00;1.00;;;23.90;71.20;;;;;;5072541;28;43887;-74
2023/07/15 05:27:45;;;;;;;1.20;1.20;;;23.90;71.10;;;;;;5069631;28;43446;-74
2023/07/15 05:30:13;;;;;;;1.10;1.10;;;23.90;71.60;;;;;;5069297;28;43451;-74
2023/07/15 05:32:41;;;;;;;1.00;1.00;;;23.90;71.40;;;;;;5061341;28;43464;-74
2023/07/15 05:35:09;;;;;;;1.20;1.20;;;24.00;71.10;;;;;;5083617;28;43609;-74
2023/07/15 05:37:37;;;;;;;1.20;1.20;;;24.10;70.70;;;;;;5081097;28;43897;-74
2023/07/15 05:40:09;;;;;;;1.17;1.17;;;24.10;70.50;;;;;;5079997;28;43444;-74
2023/07/15 05:42:42;;;;;;;1.00;1.00;;;24.20;70.60;;;;;;5074459;28;43474;-74
2023/07/15 05:45:11;;;;;;;1.20;1.20;;;24.10;70.40;;;;;;5070380;28;45677;-74
2023/07/15 05:47:39;;;;;;;1.00;1.00;;;24.10;70.80;;;;;;5079950;28;44027;-74
2023/07/15 05:50:08;;;;;;;1.00;1.00;;;24.00;70.90;;;;;;5080356;28;43385;-74
2023/07/15 05:52:36;;;;;;;1.10;1.10;;;24.00;70.90;;;;;;5071681;28;43440;-74
2023/07/15 05:55:05;;;;;;;1.00;1.00;;;24.00;71.00;;;;;;5071905;28;43870;-75
2023/07/15 05:57:33;;;;;;;1.03;1.03;;;24.00;71.20;;;;;;5083559;28;43476;-74
2023/07/15 06:00:03;;;;;;;0.97;0.97;;;23.90;71.30;;;;;;5081334;28;43396;-74
2023/07/15 06:02:35;;;;;;;1.10;1.10;;;24.00;71.10;;;;;;5070755;28;43384;-73
2023/07/15 06:05:04;;;;;;;1.00;1.00;;;24.00;70.90;;;;;;5066131;28;43893;-74
2023/07/15 06:07:32;;;;;;;1.10;1.10;;;24.00;70.70;;;;;;5074615;28;43471;-73
2023/07/15 06:10:00;;;;;;;1.23;1.23;;;24.00;70.70;;;;;;5063385;28;43400;-74
2023/07/15 06:12:28;;;;;;;1.10;1.10;;;24.00;71.10;;;;;;5065440;28;44186;-73
2023/07/15 06:14:56;;;;;;;1.00;1.00;;;24.00;71.00;;;;;;5060179;28;43597;-73
2023/07/15 06:17:25;;;;;;;1.10;1.10;;;24.00;71.00;;;;;;5067172;28;43802;-74
2023/07/15 06:19:54;;;;;;;1.00;1.00;;;24.00;71.00;;;;;;5060463;28;43476;-73
2023/07/15 06:22:22;;;;;;;1.20;1.10;;;23.90;71.00;;;;;;5069685;28;43987;-73
2023/07/15 06:24:50;;;;;;;1.00;1.00;;;23.90;71.40;;;;;;5081086;28;43613;-73
2023/07/15 06:27:17;;;;;;;1.10;1.10;;;23.90;71.30;;;;;;5082021;28;43437;-74
2023/07/15 06:29:47;;;;;;;1.03;1.03;;;23.90;71.20;;;;;;5077981;28;43438;-74
2023/07/15 06:32:15;;;;;;;1.10;1.10;;;23.90;71.20;;;;;;5076476;28;43471;-74
2023/07/15 06:34:44;;;;;;;0.83;0.83;;;23.90;71.50;;;;;;5087719;28;43683;-73
2023/07/15 06:37:12;;;;;;;1.00;1.00;;;23.80;71.20;;;;;;5077372;28;43413;-74
2023/07/15 06:39:40;;;;;;;1.00;1.00;;;23.90;71.00;;;;;;5085691;28;43387;-73
2023/07/15 06:42:08;;;;;;;1.10;1.10;;;24.10;70.80;;;;;;5084915;28;43396;-74
2023/07/15 06:44:36;;;;;;;1.00;1.00;;;24.10;70.40;;;;;;5070773;28;45775;-74
2023/07/15 06:47:04;;;;;;;1.07;1.07;;;24.20;70.40;;;;;;5067829;28;44708;-74
2023/07/15 06:49:33;;;;;;;1.00;1.00;;;24.10;70.30;;;;;;5082272;28;43383;-74
2023/07/15 06:52:02;;;;;;;1.03;1.03;;;24.10;70.50;;;;;;5067501;28;43476;-74
2023/07/15 06:54:33;;;;;;;0.90;0.90;;;24.00;70.80;;;;;;5083794;28;43661;-73
2023/07/15 06:57:01;;;;;;;1.10;1.10;;;24.00;70.80;;;;;;5070361;28;44454;-74
2023/07/15 06:59:29;;;;;;;1.10;1.10;;;24.00;70.80;;;;;;5068887;28;43387;-74
2023/07/15 07:01:57;;;;;;;1.10;1.10;;;23.90;70.80;;;;;;5084791;28;44056;-73
2023/07/15 07:04:25;;;;;;;1.10;1.10;;;23.90;71.40;;;;;;5081972;28;43828;-75
2023/07/15 07:06:53;;;;;;;1.13;1.13;;;23.90;71.20;;;;;;5071374;28;43451;-75
2023/07/15 07:09:23;;;;;;;1.23;1.23;;;24.00;70.90;;;;;;5068332;28;43553;-74
2023/07/15 07:11:50;;;;;;;1.07;1.07;;;24.00;70.70;;;;;;5068655;28;43519;-74
2023/07/15 07:14:19;;;;;;;1.10;1.10;;;24.00;70.80;;;;;;5081621;28;43681;-74
2023/07/15 07:16:47;;;;;;;1.10;1.10;;;24.00;71.00;;;;;;5076856;28;43518;-75
2023/07/15 07:19:15;;;;;;;1.20;1.20;;;24.00;71.10;;;;;;5085428;28;43359;-75
2023/07/15 07:21:43;;;;;;;1.20;1.20;;;24.00;71.00;;;;;;5080947;28;43405;-74
2023/07/15 07:24:11;;;;;;;1.00;1.00;;;24.00;71.00;;;;;;5067577;28;45715;-74
2023/07/15 07:26:41;;;;;;;1.00;1.00;;;23.90;71.00;;;;;;5071882;28;43984;-74
2023/07/15 07:29:09;;;;;;;1.00;1.00;;;23.90;71.40;;;;;;5073416;28;44225;-75
2023/07/15 07:31:37;;;;;;;1.00;1.00;;;23.90;71.20;;;;;;5070087;28;43397;-74
2023/07/15 07:34:05;;;;;;;1.10;1.10;;;24.00;70.90;;;;;;5078518;28;43662;-74
2023/07/15 07:36:33;;;;;;;1.00;1.00;;;24.00;70.60;;;;;;5066785;28;43497;-74
2023/07/15 07:39:01;;;;;;;1.00;1.00;;;24.00;70.60;;;;;;5072922;28;43440;-74
2023/07/15 07:41:29;;;;;;;1.07;1.07;;;24.00;70.60;;;;;;5069300;28;44085;-74
2023/07/15 07:43:58;;;;;;;1.20;1.20;;;24.00;70.90;;;;;;5081705;28;43775;-75
2023/07/15 07:46:26;;;;;;;1.17;1.17;;;24.00;70.70;;;;;;5086466;28;43451;-74
2023/07/15 07:48:54;;;;;;;1.10;1.10;;;24.00;70.70;;;;;;5081547;28;43372;-74
2023/07/15 07:51:22;;;;;;;1.20;1.20;;;23.90;70.60;;;;;;5085987;28;43430;-75
2023/07/15 07:53:50;;;;;;;1.20;1.20;;;23.90;71.10;;;;;;5066611;28;43839;-74
2023/07/15 07:56:18;;;;;;;1.13;1.13;;;23.90;71.10;;;;;;5080157;28;43568;-74
2023/07/15 07:58:46;;;;;;;1.20;1.20;;;23.90;71.00;;;;;;5068223;28;43447;-74
2023/07/15 08:01:16;;;;;;;0.90;0.90;;;23.90;71.10;;;;;;5081256;28;43463;-75
2023/07/15 08:03:44;;;;;;;1.20;1.20;;;23.80;71.30;;;;;;5067075;28;45636;-74
2023/07/15 08:06:12;;;;;;;1.20;1.20;;;23.80;71.50;;;;;;5068149;28;44822;-75
2023/07/15 08:08:40;;;;;;;1.00;1.00;;;23.90;71.30;;;;;;5068946;28;43455;-75
2023/07/15 08:11:08;;;;;;;1.13;1.13;;;24.00;70.90;;;;;;5082945;28;43344;-75
2023/07/15 08:13:36;;;;;;;1.13;1.13;;;24.10;70.70;;;;;;5078473;28;43596;-74
2023/07/15 08:16:05;;;;;;;1.10;1.10;;;24.10;70.40;;;;;;5069765;28;44969;-74
2023/07/15 08:18:34;;;;;;;1.17;1.17;;;24.10;70.50;;;;;;5080138;28;43383;-74
2023/07/15 08:21:02;;;;;;;1.13;1.13;;;24.00;70.40;;;;;;5069060;28;43554;-76
2023/07/15 08:23:32;;;;;;;1.20;1.20;;;24.00;71.00;;;;;;5065218;28;45971;-74
2023/07/15 08:26:00;;;;;;;1.40;1.40;;;23.90;71.00;;;;;;5079668;28;43401;-74
2023/07/15 08:28:28;;;;;;;1.10;1.10;;;23.90;70.90;;;;;;5083898;28;43997;-75
2023/07/15 08:30:56;;;;;;;1.00;1.00;;;23.90;71.10;;;;;;5084748;28;43478;-75
2023/07/15 08:33:24;;;;;;;1.20;1.20;;;23.90;71.40;;;;;;5072530;28;45352;-73
2023/07/15 08:35:53;;;;;;;1.20;1.20;;;23.90;71.50;;;;;;5078227;28;43410;-73
2023/07/15 08:38:21;;;;;;;2.10;1.40;;;23.90;71.30;;;;;;5068516;28;44057;-74
2023/07/15 08:40:50;;;;;;;1.20;1.20;;;24.00;70.90;;;;;;5061706;28;43435;-74
2023/07/15 08:43:18;;;;;;;1.30;1.30;;;24.00;70.90;;;;;;5083104;28;43591;-74
2023/07/15 08:45:46;;;;;;;1.13;1.13;;;24.00;70.90;;;;;;5072411;28;44430;-75
2023/07/15 08:48:14;;;;;;;1.20;1.20;;;24.00;71.20;;;;;;5077542;28;43341;-74
2023/07/15 08:50:42;;;;;;;1.03;1.03;;;24.00;71.10;;;;;;5067505;28;43447;-74
2023/07/15 08:53:14;;;;;;;1.50;1.20;;;24.00;71.10;;;;;;5079339;28;43912;-74
2023/07/15 08:55:42;;;;;;;6.90;1.50;;;23.90;70.90;;;;;;5066702;28;45041;-73
2023/07/15 08:58:11;;;;;;;12.47;1.60;;;23.90;71.20;;;;;;5079547;28;43402;-74
2023/07/15 09:00:39;;;;;;;4.53;1.60;;;23.90;71.50;;;;;;5081862;28;43495;-75
2023/07/15 09:03:07;;;;;;;4.10;1.40;;;23.90;71.50;;;;;;5080262;28;44189;-74
2023/07/15 09:05:35;;;;;;;3.33;1.27;;;23.90;71.40;;;;;;5068283;28;44063;-75
2023/07/15 09:08:11;;;;;;;4.73;1.47;;;23.80;71.50;;;;;;5070675;28;43863;-75
2023/07/15 09:10:52;;;;;;;2.03;1.50;;;23.80;71.60;;;;;;5070692;28;43370;-74
2023/07/15 09:13:23;;;;;;;2.73;1.40;;;23.80;71.60;;;;;;5062643;28;45948;-75
2023/07/15 09:15:51;;;;;;;2.93;1.20;;;23.80;71.60;;;;;;5088648;28;43485;-74
2023/07/15 09:18:20;;;;;;;3.80;1.70;;;23.80;71.60;;;;;;5078090;28;43415;-74
2023/07/15 09:20:51;;;;;;;4.13;1.53;;;23.70;72.00;;;;;;5080649;28;43439;-74
2023/07/15 09:23:19;;;;;;;5.83;1.80;;;23.80;71.80;;;;;;5086203;28;43765;-75
2023/07/15 09:25:53;;;;;;;4.53;1.60;;;23.90;71.40;;;;;;5065715;28;44394;-75
2023/07/15 09:28:21;;;;;;;2.43;1.50;;;24.00;71.10;;;;;;5082874;28;43479;-75
2023/07/15 09:30:49;;;;;;;4.10;1.40;;;24.10;70.70;;;;;;5062401;28;43961;-75
2023/07/15 09:33:33;;;;;;;1.50;1.47;;;24.20;70.60;;;;;;5069181;28;43611;-75
2023/07/15 09:36:01;;;;;;;4.20;1.50;;;24.10;70.60;;;;;;5083154;28;43896;-75
2023/07/15 09:38:32;;;;;;;2.70;1.53;;;24.10;70.80;;;;;;5083243;28;43404;-73
2023/07/15 09:41:05;;;;;;;1.33;1.33;;;24.00;70.90;;;;;;5080081;28;43431;-74
2023/07/15 09:43:45;;;;;;;2.97;1.73;;;24.00;70.90;;;;;;5063298;28;45689;-75
2023/07/15 09:46:14;;;;;;;1.50;1.40;;;24.00;71.10;;;;;;5061807;28;43415;-74
2023/07/15 09:48:42;;;;;;;3.13;1.70;;;23.90;71.20;;;;;;5079141;28;43860;-74
2023/07/15 09:51:11;;;;;;;2.97;1.50;;;23.90;71.60;;;;;;5069579;28;43559;-76
2023/07/15 09:53:41;;;;;;;5.30;1.53;;;23.90;71.50;;;;;;5076877;28;44058;-74
2023/07/15 09:56:11;;;;;;;1.60;1.50;;;23.90;71.60;;;;;;5064345;28;44063;-74
2023/07/15 09:58:40;;;;;;;1.57;1.47;;;23.80;71.60;;;;;;5054106;28;43479;-74
2023/07/15 10:01:15;;;;;;;1.50;1.50;;;23.80;71.90;;;;;;5068747;28;43449;-74
2023/07/15 10:03:44;;;;;;;1.53;1.50;;;23.90;71.70;;;;;;5066365;28;46087;-74
2023/07/15 10:06:12;;;;;;;1.20;1.20;;;24.00;71.40;;;;;;5076582;28;43439;-75
2023/07/15 10:08:40;;;;;;;1.50;1.40;;;24.10;71.10;;;;;;5074296;28;44021;-74
2023/07/15 10:11:08;;;;;;;1.60;1.60;;;24.10;70.70;;;;;;5086682;28;43416;-74
2023/07/15 10:13:38;;;;;;;1.80;1.50;;;24.10;70.60;;;;;;5073496;28;43849;-74
2023/07/15 10:16:06;;;;;;;2.43;1.50;;;24.10;70.70;;;;;;5059458;28;44088;-74
2023/07/15 10:18:34;;;;;;;1.50;1.50;;;24.10;70.90;;;;;;5070788;28;43387;-74
2023/07/15 10:21:03;;;;;;;1.80;1.80;;;24.00;71.10;;;;;;5085801;28;43363;-74
2023/07/15 10:23:32;;;;;;;1.57;1.57;;;24.00;71.20;;;;;;5064077;28;45363;-75
2023/07/15 10:26:02;;;;;;;1.60;1.60;;;24.00;71.20;;;;;;5069803;28;44437;-75
2023/07/15 10:28:31;;;;;;;1.70;1.60;;;23.90;71.30;;;;;;5068419;28;43897;-74
2023/07/15 10:31:11;;;;;;;1.60;1.50;;;23.90;71.70;;;;;;5070467;28;43329;-74
2023/07/15 10:33:53;;;;;;;1.50;1.50;;;23.90;71.70;;;;;;5085181;28;44080;-72
2023/07/15 10:36:39;;;;;;;1.50;1.50;;;23.90;71.70;;;;;;5067277;28;44712;-73
2023/07/15 10:39:14;;;;;;;1.50;1.50;;;23.80;71.70;;;;;;5077173;28;43376;-74
2023/07/15 10:41:43;;;;;;;1.73;1.60;;;23.80;72.10;;;;;;5072261;28;43470;-73
2023/07/15 10:44:19;;;;;;;1.60;1.60;;;23.80;72.10;;;;;;5082028;28;43621;-72
2023/07/15 10:46:49;;;;;;;1.60;1.60;;;23.80;71.90;;;;;;5085640;28;43479;-74
2023/07/15 10:49:18;;;;;;;1.53;1.53;;;23.80;71.90;;;;;;5068269;28;43412;-73
2023/07/15 10:51:46;;;;;;;1.67;1.60;;;23.80;72.10;;;;;;5075747;28;43446;-74
2023/07/15 10:54:19;;;;;;;1.80;1.63;;;23.90;72.10;;;;;;5058671;28;45394;-74
2023/07/15 10:56:47;;;;;;;1.30;1.30;;;24.00;71.80;;;;;;5065758;28;43942;-74
2023/07/15 10:59:15;;;;;;;1.50;1.50;;;24.10;71.30;;;;;;5074065;28;43369;-74
2023/07/15 11:01:43;;;;;;;1.70;1.70;;;24.10;70.90;;;;;;5075012;28;43447;-74
2023/07/15 11:04:13;;;;;;;3.70;1.50;;;24.20;70.80;;;;;;5067841;28;46171;-74
2023/07/15 11:06:41;;;;;;;1.60;1.60;;;24.20;70.80;;;;;;5074872;28;43412;-74
2023/07/15 11:09:17;;;;;;;1.60;1.60;;;24.10;71.00;;;;;;5062605;28;43467;-76
2023/07/15 11:11:45;;;;;;;1.40;1.40;;;24.10;71.10;;;;;;5058154;28;43405;-74
2023/07/15 11:14:21;;;;;;;1.60;1.60;;;24.10;71.20;;;;;;5081403;28;43616;-76
2023/07/15 11:16:53;;;;;;;1.50;1.50;;;24.10;71.20;;;;;;5071987;28;43721;-73
2023/07/15 11:19:23;;;;;;;1.60;1.60;;;24.00;71.30;;;;;;5081498;28;43471;-74
2023/07/15 11:21:52;;;;;;;2.27;1.70;;;24.00;71.60;;;;;;5084694;28;43385;-73
2023/07/15 11:24:21;;;;;;;1.80;1.80;;;24.00;71.60;;;;;;5084516;28;43757;-74
2023/07/15 11:26:49;;;;;;;2.00;1.70;;;24.00;71.60;;;;;;5078205;28;43913;-74
2023/07/15 11:29:18;;;;;;;1.60;1.60;;;23.90;71.60;;;;;;5086791;28;43341;-74
2023/07/15 11:31:47;;;;;;;1.50;1.50;;;23.90;71.80;;;;;;5069955;28;43598;-73
2023/07/15 11:34:16;;;;;;;1.70;1.70;;;23.90;71.70;;;;;;5073810;28;43603;-75
2023/07/15 11:36:46;;;;;;;1.60;1.50;;;24.00;71.70;;;;;;5074870;28;43545;-76
2023/07/15 11:39:14;;;;;;;1.70;1.70;;;24.10;71.20;;;;;;5081095;28;43440;-75
2023/07/15 11:41:42;;;;;;;1.90;1.80;;;24.20;70.90;;;;;;5076272;28;43428;-73
2023/07/15 11:44:11;;;;;;;1.77;1.77;;;24.20;70.80;;;;;;5060093;28;45436;-74
2023/07/15 11:46:39;;;;;;;1.60;1.60;;;24.20;70.90;;;;;;5061441;28;44406;-76
2023/07/15 11:49:07;;;;;;;2.03;1.77;;;24.10;71.10;;;;;;5073247;28;44115;-74
2023/07/15 11:51:36;;;;;;;1.50;1.50;;;24.00;71.20;;;;;;5075082;28;43424;-75
2023/07/15 11:54:09;;;;;;;1.60;1.60;;;24.10;71.30;;;;;;5067340;28;43761;-74
2023/07/15 11:56:38;;;;;;;1.70;1.70;;;24.00;71.20;;;;;;5075879;28;43570;-74
2023/07/15 11:59:07;;;;;;;1.77;1.67;;;24.00;71.20;;;;;;5053085;28;43439;-74
2023/07/15 12:01:35;;;;;;;1.60;1.60;;;24.00;71.80;;;;;;5077589;28;43405;-73
2023/07/15 12:04:06;;;;;;;1.90;1.80;;;24.00;71.70;;;;;;5079694;28;43599;-74
2023/07/15 12:06:34;;;;;;;1.70;1.70;;;24.00;71.40;;;;;;5069337;28;44892;-74
2023/07/15 12:09:04;;;;;;;1.60;1.60;;;24.10;71.10;;;;;;5066920;28;43475;-74
2023/07/15 12:11:34;;;;;;;1.53;1.53;;;24.20;70.90;;;;;;5073347;28;43411;-74
2023/07/15 12:14:03;;;;;;;1.63;1.63;;;24.20;70.80;;;;;;5077332;28;44090;-73
2023/07/15 12:16:31;;;;;;;1.60;1.60;;;24.10;70.90;;;;;;5081895;28;43423;-74
2023/07/15 12:19:00;;;;;;;1.60;1.60;;;24.10;71.10;;;;;;5072837;28;43339;-75
2023/07/15 12:21:28;;;;;;;1.70;1.70;;;24.00;71.30;;;;;;5075756;28;43554;-74
2023/07/15 12:23:56;;;;;;;1.50;1.50;;;24.00;71.30;;;;;;5064887;28;43874;-73
2023/07/15 12:26:24;;;;;;;1.43;1.43;;;24.00;71.30;;;;;;5083313;28;43453;-74
2023/07/15 12:28:54;;;;;;;1.70;1.70;;;24.00;71.50;;;;;;5074868;28;43477;-73
2023/07/15 12:31:22;;;;;;;1.70;1.70;;;23.90;71.70;;;;;;5086382;28;43467;-74
2023/07/15 12:33:50;;;;;;;1.70;1.70;;;23.90;71.80;;;;;;5061983;28;46083;-73
2023/07/15 12:36:18;;;;;;;1.50;1.50;;;23.90;71.70;;;;;;5079525;28;43432;-73
2023/07/15 12:38:46;;;;;;;1.60;1.60;;;23.90;71.70;;;;;;5057497;28;43805;-73
2023/07/15 12:41:14;;;;;;;1.77;1.77;;;23.90;72.10;;;;;;5089183;28;43458;-73
2023/07/15 12:43:42;;;;;;;1.47;1.47;;;23.90;71.90;;;;;;5074996;28;43587;-75
2023/07/15 12:46:12;;;;;;;1.77;1.77;;;24.00;71.60;;;;;;5081651;28;43442;-73
2023/07/15 12:48:41;;;;;;;1.60;1.50;;;24.00;71.30;;;;;;5079807;28;43407;-74
2023/07/15 12:51:09;;;;;;;1.60;1.60;;;24.10;70.90;;;;;;5078809;28;43413;-74
2023/07/15 12:53:37;;;;;;;1.53;1.53;;;24.20;70.80;;;;;;5080822;28;43599;-74